Time;durP1;ratioP1;P1;durP2;ratioP2;P2;SDS_P1;SDS_P2;PMS_P1;PMS_P2;Temp;Humidity;BMP_temperature;BMP_pressure;BME280_temperature;BME280_humidity;BME280_pressure;Samples;Min_cycle;Max_cycle;Signal;HPM_P1;HPM_P2
2023/09/18 00:01:28;;;;;;;0.65;0.45;;;;;;;24.20;100.00;100621.78;10370504;28;20491;-84
2023/09/18 00:06:30;;;;;;;0.20;0.10;;;;;;;24.95;100.00;100620.78;10375527;28;20084;-84
2023/09/18 00:11:31;;;;;;;0.20;0.20;;;;;;;25.12;100.00;100614.84;10386574;28;20057;-85
2023/09/18 00:16:33;;;;;;;0.22;0.20;;;;;;;25.25;100.00;100615.22;10388721;28;20041;-85
2023/09/18 00:21:54;;;;;;;0.15;0.15;;;;;;;25.15;100.00;100613.88;10390277;28;20042;-85
2023/09/18 00:26:56;;;;;;;0.28;0.13;;;;;;;24.98;100.00;100599.56;10345430;28;20053;-85
2023/09/18 00:31:57;;;;;;;0.20;0.20;;;;;;;24.67;100.00;100584.97;10384937;28;20046;-84
2023/09/18 00:36:59;;;;;;;0.45;0.30;;;;;;;24.30;100.00;100565.28;10369256;28;20053;-84
2023/09/18 00:42:01;;;;;;;0.55;0.20;;;;;;;24.85;100.00;100553.56;10369262;28;20044;-84
2023/09/18 00:47:03;;;;;;;0.13;0.08;;;;;;;25.06;100.00;100558.91;10367496;28;20128;-85
2023/09/18 00:52:07;;;;;;;0.10;0.10;;;;;;;25.23;100.00;100556.44;10384027;28;20049;-84
2023/09/18 00:57:10;;;;;;;0.35;0.20;;;;;;;25.14;100.00;100540.97;10384922;28;20084;-85
2023/09/18 01:02:12;;;;;;;0.65;0.17;;;;;;;25.09;100.00;100540.31;10367762;28;20042;-85
2023/09/18 01:07:14;;;;;;;0.22;0.13;;;;;;;25.19;100.00;100529.34;10359962;28;20050;-85
2023/09/18 01:12:31;;;;;;;0.35;0.32;;;;;;;25.42;100.00;100521.44;10355822;28;20744;-85
2023/09/18 01:17:38;;;;;;;0.57;0.10;;;;;;;25.15;100.00;100513.72;10330019;28;20054;-85
2023/09/18 01:22:40;;;;;;;0.30;0.30;;;;;;;25.15;100.00;100504.03;10380872;28;20402;-85
2023/09/18 01:27:42;;;;;;;0.30;0.20;;;;;;;25.29;100.00;100497.31;10383447;28;20038;-85
2023/09/18 01:32:45;;;;;;;0.55;0.38;;;;;;;25.31;100.00;100477.88;10384017;28;20482;-85
2023/09/18 01:37:47;;;;;;;0.10;0.10;;;;;;;25.49;100.00;100470.13;10379346;28;20050;-85
2023/09/18 01:42:49;;;;;;;0.30;0.28;;;;;;;25.44;100.00;100472.09;10384194;28;20145;-85
2023/09/18 01:47:51;;;;;;;0.10;0.10;;;;;;;25.01;100.00;100449.25;10384580;28;20041;-85
2023/09/18 01:52:52;;;;;;;1.13;0.47;;;;;;;25.00;100.00;100439.63;10377212;28;20397;-84
2023/09/18 01:57:55;;;;;;;0.75;0.55;;;;;;;25.05;100.00;100425.44;10367928;28;20061;-85
2023/09/18 02:02:57;;;;;;;0.40;0.40;;;;;;;25.05;100.00;100431.53;10367433;28;20464;-85
2023/09/18 02:08:19;;;;;;;1.05;0.45;;;;;;;24.99;100.00;100434.44;10381598;28;20504;-84
2023/09/18 02:13:21;;;;;;;0.90;0.70;;;;;;;24.84;100.00;100431.53;10376880;28;20053;-84
2023/09/18 02:18:22;;;;;;;0.40;0.40;;;;;;;25.12;100.00;100429.50;10388997;28;20053;-83
2023/09/18 02:23:24;;;;;;;0.55;0.35;;;;;;;24.98;100.00;100419.53;10359527;28;20041;-84
2023/09/18 02:28:26;;;;;;;1.15;0.65;;;;;;;25.08;100.00;100422.63;10384010;28;20096;-84
2023/09/18 02:33:27;;;;;;;0.98;0.55;;;;;;;25.17;100.00;100407.28;10366566;28;20405;-85
2023/09/18 02:38:32;;;;;;;1.08;0.52;;;;;;;25.42;100.00;100408.03;10382793;28;20061;-84
2023/09/18 02:43:34;;;;;;;0.45;0.35;;;;;;;25.29;100.00;100400.63;10384467;28;20050;-85
2023/09/18 02:48:36;;;;;;;0.57;0.50;;;;;;;25.30;100.00;100375.13;10383245;28;20046;-85
2023/09/18 02:53:37;;;;;;;0.80;0.60;;;;;;;25.22;100.00;100356.16;10339538;28;20049;-85
2023/09/18 02:58:39;;;;;;;0.25;0.17;;;;;;;25.41;100.00;100340.41;10382701;28;20042;-85
2023/09/18 03:03:41;;;;;;;0.35;0.30;;;;;;;25.46;100.00;100319.94;10379330;28;20076;-84
2023/09/18 03:08:44;;;;;;;0.30;0.30;;;;;;;25.72;100.00;100307.34;10369300;28;20056;-84
2023/09/18 03:13:46;;;;;;;0.40;0.32;;;;;;;25.92;100.00;100286.16;10365457;28;20046;-84
2023/09/18 03:18:51;;;;;;;0.88;0.60;;;;;;;26.23;100.00;100273.25;10368722;28;20500;-85
2023/09/18 03:23:53;;;;;;;0.25;0.08;;;;;;;26.28;100.00;100256.25;10374189;28;20088;-85
2023/09/18 03:28:54;;;;;;;0.32;0.32;;;;;;;26.00;100.00;100247.97;10370979;28;20045;-84
2023/09/18 03:33:56;;;;;;;0.40;0.32;;;;;;;26.09;100.00;100232.56;10359851;28;20038;-85
2023/09/18 03:38:59;;;;;;;0.82;0.55;;;;;;;25.89;100.00;100230.03;10374038;28;20455;-85
2023/09/18 03:44:01;;;;;;;0.85;0.52;;;;;;;26.02;100.00;100220.56;10393457;28;20050;-85
2023/09/18 03:49:03;;;;;;;0.10;0.10;;;;;;;25.71;100.00;100215.94;10389283;28;20137;-85
2023/09/18 03:54:10;;;;;;;0.68;0.35;;;;;;;25.72;100.00;100226.41;10385946;28;20046;-84
2023/09/18 03:59:12;;;;;;;1.33;0.68;;;;;;;25.66;100.00;100219.63;10381071;28;20450;-85
2023/09/18 04:04:14;;;;;;;0.55;0.38;;;;;;;25.52;100.00;100227.38;10386300;28;20100;-85
2023/09/18 04:09:17;;;;;;;0.75;0.57;;;;;;;25.48;100.00;100223.19;10354089;28;20137;-85
2023/09/18 04:14:19;;;;;;;1.58;0.50;;;;;;;25.66;100.00;100218.81;10369716;28;20497;-85
2023/09/18 04:19:21;;;;;;;0.40;0.40;;;;;;;25.83;100.00;100228.53;10390901;28;20050;-85
2023/09/18 04:24:23;;;;;;;1.30;1.20;;;;;;;26.14;100.00;100234.97;10371095;28;20042;-85
2023/09/18 04:29:24;;;;;;;0.73;0.50;;;;;;;25.78;100.00;100227.91;10378976;28;20049;-84
2023/09/18 04:34:26;;;;;;;0.45;0.43;;;;;;;26.06;100.00;100221.25;10371733;28;20137;-84
2023/09/18 04:39:30;;;;;;;0.60;0.55;;;;;;;25.50;100.00;100216.06;10374141;28;20050;-85
2023/09/18 04:44:33;;;;;;;0.55;0.45;;;;;;;25.53;100.00;100207.97;10386936;28;20057;-84
2023/09/18 04:49:35;;;;;;;1.60;0.75;;;;;;;25.65;100.00;100204.75;10371324;28;20394;-84
2023/09/18 04:54:37;;;;;;;0.82;0.45;;;;;;;25.89;100.00;100187.81;10387228;28;20093;-84
2023/09/18 04:59:39;;;;;;;0.50;0.30;;;;;;;25.88;100.00;100175.53;10385896;28;20398;-86
2023/09/18 05:04:40;;;;;;;1.45;0.82;;;;;;;25.79;100.00;100171.59;10385521;28;20041;-85
2023/09/18 05:09:42;;;;;;;0.20;0.20;;;;;;;26.03;100.00;100147.50;10356027;28;20438;-84
2023/09/18 05:14:44;;;;;;;0.50;0.50;;;;;;;26.00;100.00;100152.97;10386282;28;20068;-85
2023/09/18 05:19:46;;;;;;;1.27;0.55;;;;;;;26.18;100.00;100167.88;10379439;28;20058;-84
2023/09/18 05:24:47;;;;;;;1.38;0.40;;;;;;;26.06;100.00;100194.88;10383959;28;20073;-84
2023/09/18 05:29:49;;;;;;;0.57;0.57;;;;;;;25.15;100.00;100197.41;10373446;28;20105;-86
2023/09/18 05:34:51;;;;;;;0.05;0.05;;;;;;;25.48;100.00;100183.63;10364991;28;20050;-85
2023/09/18 05:39:52;;;;;;;0.10;0.10;;;;;;;25.76;100.00;100203.38;10355428;28;20049;-85
2023/09/18 05:44:54;;;;;;;4.63;0.88;;;;;;;26.17;100.00;100192.59;10356606;28;20045;-82
2023/09/18 05:49:56;;;;;;;0.40;0.30;;;;;;;25.16;100.00;100204.41;10378157;28;20153;-84
2023/09/18 05:54:57;;;;;;;0.30;0.30;;;;;;;25.73;100.00;100192.97;10376058;28;20057;-86
2023/09/18 05:59:59;;;;;;;0.47;0.40;;;;;;;25.74;100.00;100202.59;10342408;28;20061;-83
2023/09/18 06:05:02;;;;;;;0.25;0.25;;;;;;;24.99;100.00;100203.38;10380296;28;20049;-84
2023/09/18 06:10:04;;;;;;;0.47;0.43;;;;;;;24.77;100.00;100207.91;10342278;28;20049;-84
2023/09/18 06:15:11;;;;;;;3.97;0.75;;;;;;;24.59;100.00;100220.97;10349863;28;20046;-84
2023/09/18 06:20:13;;;;;;;1.02;0.77;;;;;;;24.75;100.00;100230.84;10335782;28;20066;-85
2023/09/18 06:25:14;;;;;;;0.52;0.32;;;;;;;25.08;100.00;100238.16;10356213;28;20140;-84
2023/09/18 06:30:16;;;;;;;0.65;0.22;;;;;;;24.91;100.00;100226.59;10341810;28;20080;-82
2023/09/18 06:35:18;;;;;;;0.55;0.55;;;;;;;24.95;100.00;100217.66;10352007;28;20042;-84
2023/09/18 06:40:20;;;;;;;0.38;0.38;;;;;;;25.19;100.00;100212.19;10364123;28;20071;-84
2023/09/18 06:45:21;;;;;;;0.63;0.43;;;;;;;24.80;100.00;100208.63;10375592;28;20049;-83
2023/09/18 06:50:24;;;;;;;0.32;0.25;;;;;;;25.05;100.00;100227.78;10381385;28;20056;-83
2023/09/18 06:55:26;;;;;;;3.47;0.20;;;;;;;25.11;100.00;100243.31;10383737;28;20573;-83
2023/09/18 07:00:27;;;;;;;1.85;0.65;;;;;;;24.69;100.00;100227.53;10369607;28;20042;-83
2023/09/18 07:05:29;;;;;;;0.38;0.28;;;;;;;25.04;100.00;100242.72;10360996;28;20528;-84
2023/09/18 07:10:32;;;;;;;0.45;0.45;;;;;;;24.99;100.00;100245.56;10371086;28;20054;-83
2023/09/18 07:15:34;;;;;;;0.50;0.50;;;;;;;25.19;100.00;100251.72;10365536;28;20050;-83
2023/09/18 07:20:36;;;;;;;0.80;0.30;;;;;;;24.90;100.00;100245.13;10396973;28;20053;-85
2023/09/18 07:25:38;;;;;;;2.03;0.88;;;;;;;25.09;100.00;100253.06;10396325;28;20061;-84
2023/09/18 07:30:40;;;;;;;1.20;0.35;;;;;;;24.79;100.00;100258.75;10381179;28;20101;-85
2023/09/18 07:35:41;;;;;;;0.65;0.30;;;;;;;25.35;100.00;100246.59;10400527;28;20049;-84
2023/09/18 07:40:43;;;;;;;0.10;0.10;;;;;;;24.59;100.00;100267.50;10381354;28;20124;-86
2023/09/18 07:45:45;;;;;;;0.73;0.73;;;;;;;25.17;100.00;100269.38;10394427;28;20060;-84
2023/09/18 07:50:49;;;;;;;1.10;1.00;;;;;;;24.72;100.00;100263.47;10405174;28;20136;-84
2023/09/18 07:55:58;;;;;;;1.65;0.85;;;;;;;25.02;100.00;100292.84;10403112;28;20413;-84
2023/09/18 08:01:05;;;;;;;1.35;0.77;;;;;;;25.52;100.00;100260.81;10383367;28;20053;-85
2023/09/18 08:06:07;;;;;;;3.00;0.60;;;;;;;25.00;100.00;100289.44;10400035;28;20050;-84
2023/09/18 08:11:08;;;;;;;0.40;0.40;;;;;;;25.25;100.00;100271.66;10388036;28;20478;-83
2023/09/18 08:16:10;;;;;;;0.38;0.35;;;;;;;25.49;100.00;100304.00;10381445;28;20053;-84
2023/09/18 08:21:13;;;;;;;0.00;0.00;;;;;;;25.49;100.00;100317.19;10406103;28;20049;-83
2023/09/18 08:26:15;;;;;;;0.20;0.13;;;;;;;25.10;100.00;100299.56;10396981;28;20141;-85
2023/09/18 08:31:17;;;;;;;0.00;0.00;;;;;;;25.71;100.00;100318.81;10373913;28;20100;-84
2023/09/18 08:36:19;;;;;;;0.32;0.17;;;;;;;25.39;100.00;100318.53;10399027;28;20053;-84
2023/09/18 08:41:26;;;;;;;1.17;0.63;;;;;;;25.23;100.00;100320.97;10384168;28;20034;-84
2023/09/18 08:46:28;;;;;;;0.13;0.05;;;;;;;25.71;100.00;100318.81;10376969;28;20061;-84
2023/09/18 08:51:35;;;;;;;0.30;0.25;;;;;;;26.11;100.00;100340.69;10362893;28;20111;-85
2023/09/18 08:56:37;;;;;;;0.35;0.10;;;;;;;25.91;100.00;100329.28;10381030;28;20065;-85
2023/09/18 09:01:39;;;;;;;0.88;0.50;;;;;;;25.14;100.00;100332.75;10386794;28;20059;-86
2023/09/18 09:06:40;;;;;;;1.55;0.45;;;;;;;25.38;100.00;100335.22;10396370;28;20389;-85
2023/09/18 09:11:49;;;;;;;1.33;0.43;;;;;;;25.48;100.00;100347.13;10389378;28;20038;-85
2023/09/18 09:16:51;;;;;;;1.02;0.65;;;;;;;25.50;100.00;100340.84;10357840;28;20137;-85
2023/09/18 09:21:53;;;;;;;1.00;0.30;;;;;;;25.55;100.00;100332.72;10358360;28;20058;-85
2023/09/18 09:26:58;;;;;;;0.20;0.10;;;;;;;25.90;100.00;100348.69;10389325;28;20058;-87
2023/09/18 09:32:16;;;;;;;0.10;0.10;;;;;;;25.62;100.00;100355.25;10343467;28;20080;-86
2023/09/18 09:37:18;;;;;;;0.28;0.15;;;;;;;25.63;100.00;100356.97;10364469;28;20053;-84
2023/09/18 09:42:28;;;;;;;1.77;1.08;;;;;;;25.94;100.00;100357.31;10380105;28;20405;-85
2023/09/18 09:47:33;;;;;;;0.00;0.00;;;;;;;25.58;100.00;100355.47;10372951;28;20076;-85
2023/09/18 09:52:37;;;;;;;0.52;0.28;;;;;;;25.44;100.00;100356.06;10357809;28;20453;-86
2023/09/18 09:57:48;;;;;;;0.52;0.20;;;;;;;26.72;100.00;100351.81;10398109;28;20054;-84
2023/09/18 10:02:49;;;;;;;0.10;0.10;;;;;;;25.47;100.00;100350.69;10375045;28;20053;-84
2023/09/18 10:07:53;;;;;;;0.13;0.13;;;;;;;26.14;100.00;100356.41;10377065;28;20049;-84
2023/09/18 10:13:00;;;;;;;0.40;0.40;;;;;;;26.94;100.00;100366.59;10366453;28;20038;-84
2023/09/18 10:18:04;;;;;;;1.48;0.25;;;;;;;26.86;100.00;100381.06;10386640;28;20670;-85
2023/09/18 10:23:07;;;;;;;0.08;0.08;;;;;;;26.75;100.00;100388.66;10380140;28;20050;-84
2023/09/18 10:28:12;;;;;;;0.00;0.00;;;;;;;26.76;100.00;100395.69;10351174;28;20056;-84
2023/09/18 10:33:14;;;;;;;0.98;0.63;;;;;;;28.71;100.00;100393.19;10377819;28;20049;-84
2023/09/18 10:38:16;;;;;;;0.40;0.30;;;;;;;27.15;100.00;100381.34;10386154;28;20473;-86
2023/09/18 10:43:18;;;;;;;0.00;0.00;;;;;;;27.45;100.00;100383.34;10339457;28;20129;-86
2023/09/18 10:48:22;;;;;;;0.22;0.20;;;;;;;28.89;100.00;100377.16;10386264;28;20121;-89
2023/09/18 10:53:25;;;;;;;0.10;0.00;;;;;;;26.94;100.00;100387.75;10364760;28;20042;-85
2023/09/18 10:58:27;;;;;;;0.10;0.10;;;;;;;27.32;100.00;100384.91;10369424;28;20058;-83
2023/09/18 11:03:32;;;;;;;0.30;0.22;;;;;;;27.34;100.00;100380.41;10365260;28;20057;-84
2023/09/18 11:08:43;;;;;;;0.10;0.10;;;;;;;27.26;100.00;100393.16;10388806;28;20057;-83
2023/09/18 11:13:49;;;;;;;0.17;0.17;;;;;;;27.40;100.00;100385.34;10347034;28;20529;-82
2023/09/18 11:18:52;;;;;;;0.40;0.20;;;;;;;27.48;100.00;100383.19;10364190;28;20038;-82
2023/09/18 11:24:06;;;;;;;0.15;0.10;;;;;;;27.14;100.00;100384.09;10365472;28;20520;-84
2023/09/18 11:29:10;;;;;;;0.65;0.40;;;;;;;27.33;100.00;100382.16;10364632;28;20057;-83
2023/09/18 11:34:19;;;;;;;0.25;0.10;;;;;;;27.92;100.00;100387.03;10364538;28;20034;-83
2023/09/18 11:39:41;;;;;;;0.00;0.00;;;;;;;27.74;100.00;100388.84;10362972;28;20054;-81
2023/09/18 11:44:46;;;;;;;0.43;0.20;;;;;;;28.38;100.00;100388.03;10339267;28;20050;-84
2023/09/18 11:49:57;;;;;;;0.00;0.00;;;;;;;29.98;100.00;100366.97;10347410;28;20057;-82
2023/09/18 11:55:00;;;;;;;0.20;0.20;;;;;;;28.83;100.00;100385.50;10368242;28;20058;-83
2023/09/18 12:00:11;;;;;;;0.57;0.52;;;;;;;29.11;100.00;100369.63;10383165;28;20366;-82
2023/09/18 12:05:18;;;;;;;0.10;0.10;;;;;;;29.75;100.00;100363.94;10368001;28;20485;-82
2023/09/18 12:10:23;;;;;;;0.10;0.10;;;;;;;28.64;100.00;100352.94;10370099;28;20497;-84
2023/09/18 12:15:25;;;;;;;0.43;0.40;;;;;;;29.22;100.00;100352.22;10370312;28;20053;-82
2023/09/18 12:20:27;;;;;;;0.10;0.10;;;;;;;28.18;100.00;100356.44;10377449;28;20058;-86
2023/09/18 12:25:28;;;;;;;0.00;0.00;;;;;;;29.01;100.00;100349.06;10375502;28;20050;-83
2023/09/18 12:30:32;;;;;;;0.30;0.30;;;;;;;28.35;100.00;100349.31;10370226;28;20553;-85
2023/09/18 12:35:34;;;;;;;3.65;1.20;;;;;;;28.48;100.00;100346.81;10370077;28;20390;-83
2023/09/18 12:40:36;;;;;;;0.68;0.38;;;;;;;29.36;100.00;100325.72;10352766;28;20054;-83
2023/09/18 12:45:38;;;;;;;1.55;0.52;;;;;;;28.86;100.00;100337.56;10377673;28;20133;-83
2023/09/18 12:50:40;;;;;;;0.25;0.25;;;;;;;28.93;100.00;100329.16;10385094;28;20046;-86
2023/09/18 12:55:43;;;;;;;0.10;0.10;;;;;;;29.73;100.00;100325.19;10351639;28;20094;-82
2023/09/18 13:00:52;;;;;;;0.20;0.20;;;;;;;29.23;100.00;100330.91;10364765;28;20409;-83
2023/09/18 13:06:06;;;;;;;;;;;;;;;28.50;100.00;100337.84;10351375;28;20038;-81
2023/09/18 13:11:08;;;;;;;0.10;0.10;;;;;;;29.17;100.00;100327.75;10347499;28;20267;-81
2023/09/18 13:16:10;;;;;;;0.28;0.28;;;;;;;29.29;100.00;100321.72;10351277;28;20046;-80
2023/09/18 13:21:13;;;;;;;0.40;0.10;;;;;;;29.56;100.00;100311.16;10354789;28;20049;-81
2023/09/18 13:26:15;;;;;;;0.10;0.10;;;;;;;30.37;100.00;100312.19;10367687;28;20050;-80
2023/09/18 13:31:18;;;;;;;0.90;0.22;;;;;;;29.65;100.00;100314.19;10372930;28;20041;-82
2023/09/18 13:36:19;;;;;;;0.28;0.15;;;;;;;28.66;100.00;100302.50;10368806;28;20513;-81
2023/09/18 13:41:21;;;;;;;0.10;0.03;;;;;;;28.01;100.00;100316.81;10383880;28;20046;-81
2023/09/18 13:46:23;;;;;;;0.25;0.15;;;;;;;27.85;100.00;100322.13;10375994;28;20088;-82
2023/09/18 13:51:25;;;;;;;0.20;0.20;;;;;;;27.95;100.00;100325.94;10364137;28;20042;-83
2023/09/18 13:56:30;;;;;;;0.13;0.00;;;;;;;28.34;100.00;100294.63;10355021;28;20072;-81
2023/09/18 14:01:32;;;;;;;0.55;0.22;;;;;;;28.39;100.00;100294.38;10365423;28;20073;-80
2023/09/18 14:06:34;;;;;;;4.78;0.88;;;;;;;27.98;100.00;100277.25;10360691;28;20058;-80
2023/09/18 14:11:38;;;;;;;0.17;0.10;;;;;;;27.79;100.00;100275.69;10381797;28;20034;-81
2023/09/18 14:16:40;;;;;;;0.10;0.10;;;;;;;28.24;100.00;100270.50;10360565;28;20050;-79
2023/09/18 14:21:42;;;;;;;0.50;0.25;;;;;;;28.75;100.00;100258.69;10390543;28;20053;-79
2023/09/18 14:26:44;;;;;;;3.58;0.10;;;;;;;27.92;100.00;100259.97;10346422;28;20053;-81
2023/09/18 14:31:46;;;;;;;2.45;0.80;;;;;;;28.71;100.00;100246.59;10366134;28;20049;-80
2023/09/18 14:36:48;;;;;;;0.15;0.15;;;;;;;28.62;100.00;100248.81;10379835;28;20050;-79
2023/09/18 14:41:50;;;;;;;0.25;0.20;;;;;;;28.67;100.00;100232.66;10356612;28;20033;-79
2023/09/18 14:46:52;;;;;;;0.85;0.45;;;;;;;28.14;100.00;100230.47;10365037;28;20057;-80
2023/09/18 14:51:54;;;;;;;2.45;0.20;;;;;;;28.45;100.00;100231.28;10345299;28;20042;-81
2023/09/18 14:56:56;;;;;;;0.20;0.20;;;;;;;27.83;100.00;100229.56;10367355;28;20048;-80
2023/09/18 15:01:57;;;;;;;0.00;0.00;;;;;;;28.69;100.00;100233.44;10383228;28;20448;-79
2023/09/18 15:07:00;;;;;;;1.00;0.35;;;;;;;28.38;100.00;100229.09;10379198;28;20405;-81
2023/09/18 15:12:03;;;;;;;0.10;0.10;;;;;;;28.24;100.00;100228.13;10379345;28;20049;-78
2023/09/18 15:17:06;;;;;;;0.00;0.00;;;;;;;28.50;100.00;100228.38;10365543;28;20095;-79
2023/09/18 15:22:08;;;;;;;0.00;0.00;;;;;;;28.63;100.00;100225.84;10348800;28;20049;-80
2023/09/18 15:27:09;;;;;;;0.00;0.00;;;;;;;28.00;100.00;100230.38;10370656;28;20042;-78
2023/09/18 15:32:11;;;;;;;0.00;0.00;;;;;;;27.88;100.00;100231.09;10359145;28;20044;-79
2023/09/18 15:37:13;;;;;;;0.13;0.13;;;;;;;27.42;100.00;100219.53;10356116;28;20063;-80
2023/09/18 15:42:15;;;;;;;0.15;0.15;;;;;;;27.55;100.00;100214.41;10371607;28;20038;-80
2023/09/18 15:47:17;;;;;;;0.47;0.10;;;;;;;27.77;100.00;100208.75;10365571;28;20057;-78
2023/09/18 15:52:18;;;;;;;0.22;0.20;;;;;;;27.82;100.00;100201.38;10384689;28;20045;-79
2023/09/18 15:57:21;;;;;;;0.13;0.13;;;;;;;27.83;100.00;100203.09;10371847;28;20050;-79
2023/09/18 16:02:26;;;;;;;0.77;0.20;;;;;;;27.49;100.00;100199.72;10388091;28;20121;-81
2023/09/18 16:07:28;;;;;;;0.20;0.20;;;;;;;27.49;100.00;100198.88;10361869;28;20084;-79
2023/09/18 16:12:33;;;;;;;0.03;0.00;;;;;;;27.43;100.00;100223.88;10370552;28;20046;-79
2023/09/18 16:17:35;;;;;;;0.00;0.00;;;;;;;22.77;100.00;100363.69;10364984;28;20053;-81
2023/09/18 16:22:37;;;;;;;0.00;0.00;;;;;;;22.02;100.00;100366.91;10387271;28;20050;-82
2023/09/18 16:27:38;;;;;;;0.25;0.25;;;;;;;21.65;100.00;100336.56;10359929;28;20049;-82
2023/09/18 16:32:41;;;;;;;0.00;0.00;;;;;;;21.61;100.00;100350.66;10377770;28;20440;-84
2023/09/18 16:37:45;;;;;;;0.00;0.00;;;;;;;21.99;100.00;100330.31;10383242;28;20044;-84
2023/09/18 16:42:47;;;;;;;0.00;0.00;;;;;;;21.68;100.00;100310.25;10346484;28;20476;-85
2023/09/18 16:47:49;;;;;;;0.00;0.00;;;;;;;22.08;100.00;100310.78;10387466;28;20076;-84
2023/09/18 16:52:51;;;;;;;0.30;0.10;;;;;;;21.92;100.00;100308.66;10375905;28;20136;-83
2023/09/18 16:57:52;;;;;;;3.95;0.10;;;;;;;21.38;100.00;100318.06;10381870;28;20046;-83
2023/09/18 17:02:54;;;;;;;0.00;0.00;;;;;;;20.86;100.00;100321.22;10371690;28;20049;-84
2023/09/18 17:07:56;;;;;;;0.00;0.00;;;;;;;20.99;100.00;100318.25;10391002;28;20099;-82
2023/09/18 17:12:57;;;;;;;0.28;0.28;;;;;;;20.94;100.00;100309.69;10391461;28;20432;-81
2023/09/18 17:18:00;;;;;;;0.10;0.10;;;;;;;21.50;100.00;100301.16;10368865;28;20045;-81
2023/09/18 17:23:03;;;;;;;0.00;0.00;;;;;;;21.63;100.00;100285.94;10385277;28;20053;-85
2023/09/18 17:28:05;;;;;;;0.00;0.00;;;;;;;21.76;100.00;100296.91;10377865;28;20046;-84
2023/09/18 17:33:06;;;;;;;0.00;0.00;;;;;;;22.01;100.00;100302.25;10370806;28;20052;-85
2023/09/18 17:38:08;;;;;;;0.00;0.00;;;;;;;21.66;100.00;100298.94;10381663;28;20404;-86
2023/09/18 17:43:10;;;;;;;0.00;0.00;;;;;;;21.70;100.00;100306.69;10372006;28;20034;-83
2023/09/18 17:48:12;;;;;;;0.17;0.08;;;;;;;21.72;100.00;100301.38;10371727;28;20473;-83
2023/09/18 17:53:14;;;;;;;0.03;0.03;;;;;;;21.53;100.00;100295.78;10367537;28;20490;-83
2023/09/18 17:58:16;;;;;;;0.00;0.00;;;;;;;21.41;100.00;100297.00;10377738;28;20528;-83
2023/09/18 18:03:19;;;;;;;0.00;0.00;;;;;;;22.06;100.00;100302.97;10390777;28;20386;-84
2023/09/18 18:08:21;;;;;;;0.55;0.20;;;;;;;21.79;100.00;100292.44;10378475;28;20053;-86
2023/09/18 18:13:23;;;;;;;0.00;0.00;;;;;;;21.85;100.00;100286.16;10365828;28;20048;-85
2023/09/18 18:18:25;;;;;;;0.00;0.00;;;;;;;22.28;100.00;100294.41;10393103;28;20144;-84
2023/09/18 18:23:27;;;;;;;0.13;0.08;;;;;;;22.15;100.00;100279.06;10353650;28;20069;-84
2023/09/18 18:28:29;;;;;;;0.00;0.00;;;;;;;22.29;100.00;100293.53;10378830;28;20104;-85
2023/09/18 18:33:31;;;;;;;0.00;0.00;;;;;;;22.25;100.00;100305.88;10380160;28;20054;-85
2023/09/18 18:38:33;;;;;;;0.43;0.15;;;;;;;22.24;100.00;100319.03;10365418;28;20390;-85
2023/09/18 18:43:35;;;;;;;0.20;0.20;;;;;;;21.96;100.00;100309.41;10396119;28;20050;-83
2023/09/18 18:48:37;;;;;;;0.10;0.10;;;;;;;21.63;100.00;100297.28;10397987;28;20532;-83
2023/09/18 18:53:40;;;;;;;0.32;0.10;;;;;;;21.97;100.00;100311.13;10362434;28;20045;-84
2023/09/18 18:58:44;;;;;;;0.50;0.30;;;;;;;22.27;100.00;100313.69;10364073;28;20497;-85
2023/09/18 19:03:46;;;;;;;0.55;0.35;;;;;;;22.33;100.00;100313.50;10389088;28;20084;-85
2023/09/18 19:08:48;;;;;;;0.30;0.10;;;;;;;22.46;100.00;100319.22;10387410;28;20053;-84
2023/09/18 19:13:50;;;;;;;0.00;0.00;;;;;;;22.01;100.00;100313.63;10390204;28;20105;-84
2023/09/18 19:18:52;;;;;;;0.60;0.40;;;;;;;22.29;100.00;100311.88;10391659;28;20046;-84
2023/09/18 19:23:54;;;;;;;0.55;0.20;;;;;;;22.23;100.00;100312.94;10373662;28;20052;-83
2023/09/18 19:28:55;;;;;;;0.20;0.17;;;;;;;22.47;100.00;100319.16;10405277;28;20121;-82
2023/09/18 19:33:59;;;;;;;0.10;0.10;;;;;;;22.44;100.00;100327.16;10389690;28;20045;-82
2023/09/18 19:39:04;;;;;;;0.00;0.00;;;;;;;22.57;100.00;100332.00;10374375;28;20054;-82
2023/09/18 19:44:06;;;;;;;0.20;0.10;;;;;;;22.31;100.00;100342.41;10391397;28;20552;-84
2023/09/18 19:49:08;;;;;;;0.20;0.20;;;;;;;22.16;100.00;100330.63;10385819;28;20045;-83
2023/09/18 19:54:10;;;;;;;0.00;0.00;;;;;;;22.24;100.00;100345.25;10388781;28;20042;-82
2023/09/18 19:59:11;;;;;;;0.10;0.10;;;;;;;22.64;100.00;100346.63;10408956;28;20513;-83
2023/09/18 20:04:13;;;;;;;0.10;0.10;;;;;;;22.76;100.00;100356.72;10379075;28;20065;-83
2023/09/18 20:09:15;;;;;;;3.20;0.60;;;;;;;22.44;100.00;100363.91;10383422;28;20144;-82
2023/09/18 20:14:18;;;;;;;0.10;0.10;;;;;;;22.27;100.00;100360.91;10388577;28;20038;-83
2023/09/18 20:19:32;;;;;;;0.65;0.52;;;;;;;22.40;100.00;100367.53;10392569;28;20082;-84
2023/09/18 20:24:33;;;;;;;0.73;0.20;;;;;;;22.45;100.00;100373.47;10398315;28;20050;-82
2023/09/18 20:29:36;;;;;;;0.00;0.00;;;;;;;22.61;100.00;100379.09;10385750;28;20042;-84
2023/09/18 20:34:37;;;;;;;0.38;0.38;;;;;;;22.79;100.00;100385.50;10369268;28;20043;-83
2023/09/18 20:39:39;;;;;;;0.00;0.00;;;;;;;22.78;100.00;100396.94;10381146;28;20068;-83
2023/09/18 20:44:41;;;;;;;0.77;0.45;;;;;;;22.43;100.00;100404.19;10385673;28;20078;-82
2023/09/18 20:49:47;;;;;;;0.25;0.17;;;;;;;22.70;100.00;100401.56;10389741;28;20482;-84
2023/09/18 20:54:52;;;;;;;0.75;0.47;;;;;;;22.94;100.00;100414.81;10399186;28;20034;-83
2023/09/18 20:59:54;;;;;;;0.05;0.05;;;;;;;22.59;100.00;100414.19;10369379;28;20056;-84
2023/09/18 21:04:56;;;;;;;0.00;0.00;;;;;;;22.56;100.00;100419.53;10384702;28;20060;-83
2023/09/18 21:09:57;;;;;;;0.75;0.65;;;;;;;23.04;100.00;100426.72;10383385;28;20045;-83
2023/09/18 21:15:00;;;;;;;0.08;0.08;;;;;;;23.07;100.00;100437.13;10390869;28;20060;-85
2023/09/18 21:20:04;;;;;;;0.10;0.10;;;;;;;22.60;100.00;100443.03;10388125;28;20456;-84
2023/09/18 21:25:07;;;;;;;0.10;0.10;;;;;;;22.46;100.00;100446.06;10380651;28;20066;-85
2023/09/18 21:30:09;;;;;;;4.70;0.63;;;;;;;22.29;100.00;100453.59;10371365;28;20046;-83
2023/09/18 21:35:11;;;;;;;0.00;0.00;;;;;;;22.40;100.00;100451.50;10381934;28;20065;-84
2023/09/18 21:40:12;;;;;;;0.00;0.00;;;;;;;23.08;100.00;100459.84;10406718;28;20053;-84
2023/09/18 21:45:15;;;;;;;0.10;0.10;;;;;;;22.31;100.00;100457.88;10370043;28;20083;-83
2023/09/18 21:50:17;;;;;;;0.45;0.13;;;;;;;22.35;100.00;100464.72;10391835;28;20058;-84
2023/09/18 21:55:21;;;;;;;0.00;0.00;;;;;;;21.89;100.00;100470.47;10393015;28;20041;-83
2023/09/18 22:00:27;;;;;;;0.95;0.75;;;;;;;22.26;100.00;100472.91;10393552;28;20122;-86
2023/09/18 22:05:28;;;;;;;0.13;0.13;;;;;;;21.46;100.00;100488.19;10383225;28;20081;-83
2023/09/18 22:10:31;;;;;;;0.30;0.30;;;;;;;21.83;100.00;100498.59;10397549;28;20487;-83
2023/09/18 22:15:33;;;;;;;1.08;0.38;;;;;;;22.10;100.00;100501.34;10370836;28;20069;-84
2023/09/18 22:20:35;;;;;;;0.10;0.10;;;;;;;21.98;100.00;100501.69;10380066;28;20054;-84
2023/09/18 22:25:37;;;;;;;0.20;0.05;;;;;;;21.80;100.00;100509.16;10374395;28;20042;-86
2023/09/18 22:30:40;;;;;;;0.52;0.17;;;;;;;21.68;100.00;100509.50;10373657;28;20062;-85
2023/09/18 22:35:44;;;;;;;0.75;0.65;;;;;;;21.02;100.00;100509.38;10389046;28;20065;-83
2023/09/18 22:40:46;;;;;;;0.20;0.20;;;;;;;21.50;100.00;100514.28;10361491;28;20056;-84
2023/09/18 22:46:25;;;;;;;0.40;0.03;;;;;;;21.32;100.00;100536.56;10377393;28;20041;-85
2023/09/18 22:52:04;;;;;;;0.05;0.05;;;;;;;21.13;100.00;100541.38;10377207;28;20054;-85
2023/09/18 22:57:07;;;;;;;0.17;0.17;;;;;;;21.19;100.00;100543.84;10379714;28;20120;-83